sensor_id;sensor_type;location;lat;lon;timestamp;P1;durP1;ratioP1;P2;durP2;ratioP2
2706;SDS011;7819;48.046;7.642;2023-07-22T00:01:40;2.53;;;2.10;;
2706;SDS011;7819;48.046;7.642;2023-07-22T00:04:06;2.90;;;1.80;;
2706;SDS011;7819;48.046;7.642;2023-07-22T00:06:31;3.17;;;2.07;;
2706;SDS011;7819;48.046;7.642;2023-07-22T00:08:57;1.83;;;1.63;;
2706;SDS011;7819;48.046;7.642;2023-07-22T00:11:22;3.67;;;2.27;;
2706;SDS011;7819;48.046;7.642;2023-07-22T00:13:47;2.37;;;1.63;;
2706;SDS011;7819;48.046;7.642;2023-07-22T00:16:13;2.57;;;1.93;;
2706;SDS011;7819;48.046;7.642;2023-07-22T00:18:38;2.30;;;1.57;;
2706;SDS011;7819;48.046;7.642;2023-07-22T00:21:03;2.70;;;1.80;;
2706;SDS011;7819;48.046;7.642;2023-07-22T00:23:28;2.83;;;1.67;;
2706;SDS011;7819;48.046;7.642;2023-07-22T00:25:55;2.73;;;1.77;;
2706;SDS011;7819;48.046;7.642;2023-07-22T00:28:20;4.47;;;2.17;;
2706;SDS011;7819;48.046;7.642;2023-07-22T00:30:45;2.50;;;1.53;;
2706;SDS011;7819;48.046;7.642;2023-07-22T00:33:10;3.27;;;2.30;;
2706;SDS011;7819;48.046;7.642;2023-07-22T00:35:35;2.27;;;1.80;;
2706;SDS011;7819;48.046;7.642;2023-07-22T00:38:01;2.70;;;1.83;;
2706;SDS011;7819;48.046;7.642;2023-07-22T00:40:26;2.70;;;1.83;;
2706;SDS011;7819;48.046;7.642;2023-07-22T00:42:52;2.50;;;1.80;;
2706;SDS011;7819;48.046;7.642;2023-07-22T00:45:17;2.97;;;2.67;;
2706;SDS011;7819;48.046;7.642;2023-07-22T00:47:42;3.47;;;2.10;;
2706;SDS011;7819;48.046;7.642;2023-07-22T00:50:08;4.33;;;1.73;;
2706;SDS011;7819;48.046;7.642;2023-07-22T00:52:34;3.13;;;2.07;;
2706;SDS011;7819;48.046;7.642;2023-07-22T00:54:59;2.30;;;1.70;;
2706;SDS011;7819;48.046;7.642;2023-07-22T00:57:24;3.50;;;1.83;;
2706;SDS011;7819;48.046;7.642;2023-07-22T00:59:50;3.33;;;1.80;;
2706;SDS011;7819;48.046;7.642;2023-07-22T01:02:15;2.77;;;1.80;;
2706;SDS011;7819;48.046;7.642;2023-07-22T01:04:40;2.40;;;1.83;;
2706;SDS011;7819;48.046;7.642;2023-07-22T01:07:05;2.77;;;2.03;;
2706;SDS011;7819;48.046;7.642;2023-07-22T01:09:38;2.80;;;1.97;;
2706;SDS011;7819;48.046;7.642;2023-07-22T01:12:03;4.03;;;1.97;;
2706;SDS011;7819;48.046;7.642;2023-07-22T01:14:30;4.13;;;2.30;;
2706;SDS011;7819;48.046;7.642;2023-07-22T01:16:56;3.03;;;2.20;;
2706;SDS011;7819;48.046;7.642;2023-07-22T01:19:21;8.03;;;2.70;;
2706;SDS011;7819;48.046;7.642;2023-07-22T01:21:46;6.93;;;1.90;;
2706;SDS011;7819;48.046;7.642;2023-07-22T01:24:12;2.63;;;1.80;;
2706;SDS011;7819;48.046;7.642;2023-07-22T01:26:37;2.83;;;2.30;;
2706;SDS011;7819;48.046;7.642;2023-07-22T01:29:03;3.90;;;2.17;;
2706;SDS011;7819;48.046;7.642;2023-07-22T01:31:28;2.80;;;1.70;;
2706;SDS011;7819;48.046;7.642;2023-07-22T01:33:53;2.97;;;1.90;;
2706;SDS011;7819;48.046;7.642;2023-07-22T01:36:19;1.93;;;1.73;;
2706;SDS011;7819;48.046;7.642;2023-07-22T01:38:44;3.93;;;2.13;;
2706;SDS011;7819;48.046;7.642;2023-07-22T01:41:09;3.00;;;2.13;;
2706;SDS011;7819;48.046;7.642;2023-07-22T01:43:34;3.77;;;1.80;;
2706;SDS011;7819;48.046;7.642;2023-07-22T01:45:59;2.90;;;2.60;;
2706;SDS011;7819;48.046;7.642;2023-07-22T01:48:25;2.77;;;1.93;;
2706;SDS011;7819;48.046;7.642;2023-07-22T01:50:50;2.60;;;2.17;;
2706;SDS011;7819;48.046;7.642;2023-07-22T01:53:15;4.23;;;2.57;;
2706;SDS011;7819;48.046;7.642;2023-07-22T01:55:40;2.53;;;1.87;;
2706;SDS011;7819;48.046;7.642;2023-07-22T01:58:05;4.17;;;2.20;;
2706;SDS011;7819;48.046;7.642;2023-07-22T02:00:31;2.90;;;2.37;;
2706;SDS011;7819;48.046;7.642;2023-07-22T02:02:56;3.77;;;2.53;;
2706;SDS011;7819;48.046;7.642;2023-07-22T02:05:21;2.77;;;2.20;;
2706;SDS011;7819;48.046;7.642;2023-07-22T02:07:46;4.13;;;1.97;;
2706;SDS011;7819;48.046;7.642;2023-07-22T02:10:12;3.13;;;2.33;;
2706;SDS011;7819;48.046;7.642;2023-07-22T02:12:37;2.53;;;1.70;;
2706;SDS011;7819;48.046;7.642;2023-07-22T02:15:02;3.20;;;2.40;;
2706;SDS011;7819;48.046;7.642;2023-07-22T02:17:27;4.03;;;2.30;;
2706;SDS011;7819;48.046;7.642;2023-07-22T02:19:52;3.70;;;2.13;;
2706;SDS011;7819;48.046;7.642;2023-07-22T02:22:18;4.37;;;2.27;;
2706;SDS011;7819;48.046;7.642;2023-07-22T02:24:43;2.93;;;2.03;;
2706;SDS011;7819;48.046;7.642;2023-07-22T02:27:08;2.90;;;2.17;;
2706;SDS011;7819;48.046;7.642;2023-07-22T02:29:36;3.30;;;2.23;;
2706;SDS011;7819;48.046;7.642;2023-07-22T02:32:01;2.63;;;2.43;;
2706;SDS011;7819;48.046;7.642;2023-07-22T02:34:26;3.10;;;2.20;;
2706;SDS011;7819;48.046;7.642;2023-07-22T02:36:52;2.53;;;1.87;;
2706;SDS011;7819;48.046;7.642;2023-07-22T02:39:17;2.63;;;2.40;;
2706;SDS011;7819;48.046;7.642;2023-07-22T02:41:42;3.30;;;2.70;;
2706;SDS011;7819;48.046;7.642;2023-07-22T02:44:07;2.90;;;1.97;;
2706;SDS011;7819;48.046;7.642;2023-07-22T02:46:33;3.87;;;2.27;;
2706;SDS011;7819;48.046;7.642;2023-07-22T02:48:58;2.43;;;1.77;;
2706;SDS011;7819;48.046;7.642;2023-07-22T02:51:24;2.40;;;1.90;;
2706;SDS011;7819;48.046;7.642;2023-07-22T02:53:49;2.67;;;2.13;;
2706;SDS011;7819;48.046;7.642;2023-07-22T02:56:14;3.10;;;2.00;;
2706;SDS011;7819;48.046;7.642;2023-07-22T02:58:39;4.20;;;2.33;;
2706;SDS011;7819;48.046;7.642;2023-07-22T03:01:06;2.17;;;1.70;;
2706;SDS011;7819;48.046;7.642;2023-07-22T03:03:33;3.10;;;2.30;;
2706;SDS011;7819;48.046;7.642;2023-07-22T03:05:59;3.23;;;2.70;;
2706;SDS011;7819;48.046;7.642;2023-07-22T03:08:25;2.50;;;2.10;;
2706;SDS011;7819;48.046;7.642;2023-07-22T03:10:50;5.30;;;2.63;;
2706;SDS011;7819;48.046;7.642;2023-07-22T03:13:15;3.93;;;3.00;;
2706;SDS011;7819;48.046;7.642;2023-07-22T03:15:40;2.83;;;2.20;;
2706;SDS011;7819;48.046;7.642;2023-07-22T03:18:06;3.47;;;2.27;;
2706;SDS011;7819;48.046;7.642;2023-07-22T03:20:31;3.70;;;2.30;;
2706;SDS011;7819;48.046;7.642;2023-07-22T03:22:56;3.47;;;2.80;;
2706;SDS011;7819;48.046;7.642;2023-07-22T03:25:22;3.60;;;2.37;;
2706;SDS011;7819;48.046;7.642;2023-07-22T03:27:47;2.50;;;2.30;;
2706;SDS011;7819;48.046;7.642;2023-07-22T03:30:13;3.20;;;2.27;;
2706;SDS011;7819;48.046;7.642;2023-07-22T03:32:42;4.73;;;3.00;;
2706;SDS011;7819;48.046;7.642;2023-07-22T03:35:08;2.80;;;2.13;;
2706;SDS011;7819;48.046;7.642;2023-07-22T03:37:34;2.70;;;2.37;;
2706;SDS011;7819;48.046;7.642;2023-07-22T03:40:01;3.10;;;1.93;;
2706;SDS011;7819;48.046;7.642;2023-07-22T03:42:26;3.07;;;2.33;;
2706;SDS011;7819;48.046;7.642;2023-07-22T03:44:51;2.33;;;2.10;;
2706;SDS011;7819;48.046;7.642;2023-07-22T03:47:16;3.90;;;2.20;;
2706;SDS011;7819;48.046;7.642;2023-07-22T03:49:41;2.90;;;2.10;;
2706;SDS011;7819;48.046;7.642;2023-07-22T03:52:07;4.23;;;2.80;;
2706;SDS011;7819;48.046;7.642;2023-07-22T03:54:32;3.07;;;2.20;;
2706;SDS011;7819;48.046;7.642;2023-07-22T03:56:57;2.90;;;2.20;;
2706;SDS011;7819;48.046;7.642;2023-07-22T03:59:22;3.00;;;2.37;;
2706;SDS011;7819;48.046;7.642;2023-07-22T04:01:47;3.70;;;2.20;;
2706;SDS011;7819;48.046;7.642;2023-07-22T04:04:12;2.60;;;2.27;;
2706;SDS011;7819;48.046;7.642;2023-07-22T04:06:38;3.30;;;1.83;;
2706;SDS011;7819;48.046;7.642;2023-07-22T04:09:03;3.20;;;2.37;;
2706;SDS011;7819;48.046;7.642;2023-07-22T04:11:28;4.57;;;2.40;;
2706;SDS011;7819;48.046;7.642;2023-07-22T04:13:53;3.90;;;2.63;;
2706;SDS011;7819;48.046;7.642;2023-07-22T04:16:18;4.00;;;2.10;;
2706;SDS011;7819;48.046;7.642;2023-07-22T04:18:44;4.07;;;3.13;;
2706;SDS011;7819;48.046;7.642;2023-07-22T04:21:09;3.47;;;2.53;;
2706;SDS011;7819;48.046;7.642;2023-07-22T04:23:34;4.57;;;3.70;;
2706;SDS011;7819;48.046;7.642;2023-07-22T04:26:01;3.37;;;3.07;;
2706;SDS011;7819;48.046;7.642;2023-07-22T04:28:26;2.50;;;2.30;;
2706;SDS011;7819;48.046;7.642;2023-07-22T04:30:55;3.27;;;2.10;;
2706;SDS011;7819;48.046;7.642;2023-07-22T04:33:21;3.30;;;2.20;;
2706;SDS011;7819;48.046;7.642;2023-07-22T04:35:46;3.17;;;2.30;;
2706;SDS011;7819;48.046;7.642;2023-07-22T04:38:11;3.20;;;2.70;;
2706;SDS011;7819;48.046;7.642;2023-07-22T04:40:36;2.50;;;2.03;;
2706;SDS011;7819;48.046;7.642;2023-07-22T04:43:02;4.50;;;2.47;;
2706;SDS011;7819;48.046;7.642;2023-07-22T04:45:28;4.50;;;2.13;;
2706;SDS011;7819;48.046;7.642;2023-07-22T04:47:53;3.07;;;2.57;;
2706;SDS011;7819;48.046;7.642;2023-07-22T04:50:18;3.10;;;2.50;;
2706;SDS011;7819;48.046;7.642;2023-07-22T04:52:47;3.10;;;2.77;;
2706;SDS011;7819;48.046;7.642;2023-07-22T04:55:13;5.40;;;2.73;;
2706;SDS011;7819;48.046;7.642;2023-07-22T04:57:38;3.07;;;2.77;;
2706;SDS011;7819;48.046;7.642;2023-07-22T05:00:04;4.40;;;2.87;;
2706;SDS011;7819;48.046;7.642;2023-07-22T05:02:30;5.20;;;3.27;;
2706;SDS011;7819;48.046;7.642;2023-07-22T05:04:56;3.87;;;3.17;;
2706;SDS011;7819;48.046;7.642;2023-07-22T05:07:21;3.23;;;2.93;;
2706;SDS011;7819;48.046;7.642;2023-07-22T05:09:46;6.07;;;3.00;;
2706;SDS011;7819;48.046;7.642;2023-07-22T05:12:11;2.97;;;2.67;;
2706;SDS011;7819;48.046;7.642;2023-07-22T05:14:37;3.83;;;3.47;;
2706;SDS011;7819;48.046;7.642;2023-07-22T05:17:02;5.90;;;3.93;;
2706;SDS011;7819;48.046;7.642;2023-07-22T05:19:27;5.00;;;3.40;;
2706;SDS011;7819;48.046;7.642;2023-07-22T05:21:52;6.83;;;4.20;;
2706;SDS011;7819;48.046;7.642;2023-07-22T05:24:17;3.77;;;3.37;;
2706;SDS011;7819;48.046;7.642;2023-07-22T05:26:43;4.77;;;3.33;;
2706;SDS011;7819;48.046;7.642;2023-07-22T05:29:08;3.83;;;2.97;;
2706;SDS011;7819;48.046;7.642;2023-07-22T05:31:33;3.30;;;2.30;;
2706;SDS011;7819;48.046;7.642;2023-07-22T05:33:58;3.90;;;2.73;;
2706;SDS011;7819;48.046;7.642;2023-07-22T05:36:23;3.77;;;3.03;;
2706;SDS011;7819;48.046;7.642;2023-07-22T05:38:49;2.93;;;2.63;;
2706;SDS011;7819;48.046;7.642;2023-07-22T05:41:14;5.63;;;2.97;;
2706;SDS011;7819;48.046;7.642;2023-07-22T05:43:39;2.70;;;2.33;;
2706;SDS011;7819;48.046;7.642;2023-07-22T05:46:04;4.37;;;2.90;;
2706;SDS011;7819;48.046;7.642;2023-07-22T05:48:29;6.10;;;2.70;;
2706;SDS011;7819;48.046;7.642;2023-07-22T05:50:55;5.13;;;3.10;;
2706;SDS011;7819;48.046;7.642;2023-07-22T05:53:20;4.43;;;3.23;;
2706;SDS011;7819;48.046;7.642;2023-07-22T05:55:45;4.40;;;3.43;;
2706;SDS011;7819;48.046;7.642;2023-07-22T05:58:17;4.23;;;2.50;;
2706;SDS011;7819;48.046;7.642;2023-07-22T06:00:42;3.93;;;3.07;;
2706;SDS011;7819;48.046;7.642;2023-07-22T06:03:08;5.40;;;2.70;;
2706;SDS011;7819;48.046;7.642;2023-07-22T06:05:33;3.13;;;2.77;;
2706;SDS011;7819;48.046;7.642;2023-07-22T06:07:59;4.13;;;2.57;;
2706;SDS011;7819;48.046;7.642;2023-07-22T06:10:24;3.63;;;2.70;;
2706;SDS011;7819;48.046;7.642;2023-07-22T06:12:49;3.63;;;2.50;;
2706;SDS011;7819;48.046;7.642;2023-07-22T06:15:14;3.03;;;2.73;;
2706;SDS011;7819;48.046;7.642;2023-07-22T06:17:39;2.83;;;2.27;;
2706;SDS011;7819;48.046;7.642;2023-07-22T06:20:05;5.50;;;3.97;;
2706;SDS011;7819;48.046;7.642;2023-07-22T06:22:30;6.73;;;2.90;;
2706;SDS011;7819;48.046;7.642;2023-07-22T06:24:55;2.80;;;2.50;;
2706;SDS011;7819;48.046;7.642;2023-07-22T06:27:21;5.60;;;2.73;;
2706;SDS011;7819;48.046;7.642;2023-07-22T06:29:47;3.53;;;2.83;;
2706;SDS011;7819;48.046;7.642;2023-07-22T06:32:12;2.97;;;2.33;;
2706;SDS011;7819;48.046;7.642;2023-07-22T06:34:37;4.00;;;2.50;;
2706;SDS011;7819;48.046;7.642;2023-07-22T06:37:02;3.43;;;2.50;;
2706;SDS011;7819;48.046;7.642;2023-07-22T06:39:27;5.77;;;2.70;;
2706;SDS011;7819;48.046;7.642;2023-07-22T06:41:53;3.67;;;3.30;;
2706;SDS011;7819;48.046;7.642;2023-07-22T06:44:18;4.37;;;3.00;;
2706;SDS011;7819;48.046;7.642;2023-07-22T06:46:43;6.87;;;4.00;;
2706;SDS011;7819;48.046;7.642;2023-07-22T06:49:09;4.63;;;3.07;;
2706;SDS011;7819;48.046;7.642;2023-07-22T06:51:34;6.43;;;3.00;;
2706;SDS011;7819;48.046;7.642;2023-07-22T06:54:01;3.30;;;3.00;;
2706;SDS011;7819;48.046;7.642;2023-07-22T06:56:26;4.70;;;2.63;;
2706;SDS011;7819;48.046;7.642;2023-07-22T06:58:51;4.10;;;2.77;;
2706;SDS011;7819;48.046;7.642;2023-07-22T07:01:17;3.40;;;3.10;;
2706;SDS011;7819;48.046;7.642;2023-07-22T07:03:42;4.07;;;3.00;;
2706;SDS011;7819;48.046;7.642;2023-07-22T07:06:07;4.57;;;2.67;;
2706;SDS011;7819;48.046;7.642;2023-07-22T07:08:32;4.37;;;2.67;;
2706;SDS011;7819;48.046;7.642;2023-07-22T07:10:58;6.00;;;3.23;;
2706;SDS011;7819;48.046;7.642;2023-07-22T07:13:24;4.20;;;2.80;;
2706;SDS011;7819;48.046;7.642;2023-07-22T07:15:49;3.80;;;2.67;;
2706;SDS011;7819;48.046;7.642;2023-07-22T07:18:14;3.43;;;2.27;;
2706;SDS011;7819;48.046;7.642;2023-07-22T07:20:40;6.33;;;2.37;;
2706;SDS011;7819;48.046;7.642;2023-07-22T07:23:05;3.10;;;2.30;;
2706;SDS011;7819;48.046;7.642;2023-07-22T07:25:30;2.90;;;2.60;;
2706;SDS011;7819;48.046;7.642;2023-07-22T07:27:55;3.87;;;2.80;;
2706;SDS011;7819;48.046;7.642;2023-07-22T07:30:20;3.70;;;2.20;;
2706;SDS011;7819;48.046;7.642;2023-07-22T07:32:46;5.17;;;2.97;;
2706;SDS011;7819;48.046;7.642;2023-07-22T07:35:11;4.23;;;2.30;;
2706;SDS011;7819;48.046;7.642;2023-07-22T07:37:36;3.57;;;2.70;;
2706;SDS011;7819;48.046;7.642;2023-07-22T07:40:02;2.43;;;2.07;;
2706;SDS011;7819;48.046;7.642;2023-07-22T07:42:28;2.30;;;2.10;;
2706;SDS011;7819;48.046;7.642;2023-07-22T07:44:53;4.50;;;2.53;;
2706;SDS011;7819;48.046;7.642;2023-07-22T07:47:18;3.30;;;2.20;;
2706;SDS011;7819;48.046;7.642;2023-07-22T07:49:44;2.50;;;1.93;;
2706;SDS011;7819;48.046;7.642;2023-07-22T07:52:09;4.43;;;1.97;;
2706;SDS011;7819;48.046;7.642;2023-07-22T07:54:34;3.20;;;2.20;;
2706;SDS011;7819;48.046;7.642;2023-07-22T07:57:00;3.60;;;1.90;;
2706;SDS011;7819;48.046;7.642;2023-07-22T07:59:25;2.33;;;1.60;;
2706;SDS011;7819;48.046;7.642;2023-07-22T08:01:50;3.40;;;1.77;;
2706;SDS011;7819;48.046;7.642;2023-07-22T08:04:16;3.87;;;1.80;;
2706;SDS011;7819;48.046;7.642;2023-07-22T08:06:42;2.67;;;1.93;;
2706;SDS011;7819;48.046;7.642;2023-07-22T08:09:07;2.47;;;2.10;;
2706;SDS011;7819;48.046;7.642;2023-07-22T08:11:35;2.57;;;1.80;;
2706;SDS011;7819;48.046;7.642;2023-07-22T08:14:00;3.07;;;2.07;;
2706;SDS011;7819;48.046;7.642;2023-07-22T08:16:26;3.73;;;2.10;;
2706;SDS011;7819;48.046;7.642;2023-07-22T08:18:51;2.93;;;1.87;;
2706;SDS011;7819;48.046;7.642;2023-07-22T08:21:17;4.87;;;1.70;;
2706;SDS011;7819;48.046;7.642;2023-07-22T08:23:42;3.00;;;2.13;;
2706;SDS011;7819;48.046;7.642;2023-07-22T08:26:10;2.63;;;1.60;;
2706;SDS011;7819;48.046;7.642;2023-07-22T08:28:35;3.20;;;1.70;;
2706;SDS011;7819;48.046;7.642;2023-07-22T08:31:01;2.47;;;2.00;;
2706;SDS011;7819;48.046;7.642;2023-07-22T08:33:26;2.83;;;1.80;;
2706;SDS011;7819;48.046;7.642;2023-07-22T08:35:51;3.57;;;1.67;;
2706;SDS011;7819;48.046;7.642;2023-07-22T08:38:17;2.57;;;1.80;;
2706;SDS011;7819;48.046;7.642;2023-07-22T08:40:42;3.33;;;2.43;;
2706;SDS011;7819;48.046;7.642;2023-07-22T08:43:08;1.90;;;1.50;;
2706;SDS011;7819;48.046;7.642;2023-07-22T08:45:35;2.30;;;1.63;;
2706;SDS011;7819;48.046;7.642;2023-07-22T08:48:04;4.80;;;1.43;;
2706;SDS011;7819;48.046;7.642;2023-07-22T08:50:46;2.27;;;1.67;;
2706;SDS011;7819;48.046;7.642;2023-07-22T08:53:14;2.93;;;1.40;;
2706;SDS011;7819;48.046;7.642;2023-07-22T08:55:39;2.30;;;1.70;;
2706;SDS011;7819;48.046;7.642;2023-07-22T08:58:07;3.00;;;1.77;;
2706;SDS011;7819;48.046;7.642;2023-07-22T09:00:32;2.33;;;1.17;;
2706;SDS011;7819;48.046;7.642;2023-07-22T09:02:58;2.60;;;1.77;;
2706;SDS011;7819;48.046;7.642;2023-07-22T09:05:23;4.20;;;1.80;;
2706;SDS011;7819;48.046;7.642;2023-07-22T09:07:48;3.13;;;1.67;;
2706;SDS011;7819;48.046;7.642;2023-07-22T09:10:14;2.20;;;1.53;;
2706;SDS011;7819;48.046;7.642;2023-07-22T09:12:40;2.23;;;1.93;;
2706;SDS011;7819;48.046;7.642;2023-07-22T09:15:11;3.03;;;1.60;;
2706;SDS011;7819;48.046;7.642;2023-07-22T09:17:40;2.40;;;1.47;;
2706;SDS011;7819;48.046;7.642;2023-07-22T09:20:06;1.70;;;1.30;;
2706;SDS011;7819;48.046;7.642;2023-07-22T09:22:31;2.23;;;1.40;;
2706;SDS011;7819;48.046;7.642;2023-07-22T09:25:18;1.80;;;1.10;;
2706;SDS011;7819;48.046;7.642;2023-07-22T09:27:43;2.10;;;1.30;;
2706;SDS011;7819;48.046;7.642;2023-07-22T09:30:20;1.80;;;1.00;;
2706;SDS011;7819;48.046;7.642;2023-07-22T09:32:45;1.60;;;1.30;;
2706;SDS011;7819;48.046;7.642;2023-07-22T09:35:10;2.00;;;1.50;;
2706;SDS011;7819;48.046;7.642;2023-07-22T09:37:36;1.90;;;1.47;;
2706;SDS011;7819;48.046;7.642;2023-07-22T09:40:02;2.30;;;1.03;;
2706;SDS011;7819;48.046;7.642;2023-07-22T09:42:36;3.70;;;1.10;;
2706;SDS011;7819;48.046;7.642;2023-07-22T09:45:01;2.10;;;1.03;;
2706;SDS011;7819;48.046;7.642;2023-07-22T09:47:26;3.43;;;1.70;;
2706;SDS011;7819;48.046;7.642;2023-07-22T09:49:51;2.35;;;1.00;;
2706;SDS011;7819;48.046;7.642;2023-07-22T09:52:17;1.90;;;1.20;;
2706;SDS011;7819;48.046;7.642;2023-07-22T09:54:48;1.93;;;1.20;;
2706;SDS011;7819;48.046;7.642;2023-07-22T09:57:14;1.67;;;0.97;;
2706;SDS011;7819;48.046;7.642;2023-07-22T09:59:40;1.83;;;1.10;;
2706;SDS011;7819;48.046;7.642;2023-07-22T10:02:05;1.77;;;1.23;;
2706;SDS011;7819;48.046;7.642;2023-07-22T10:04:34;3.00;;;0.87;;
2706;SDS011;7819;48.046;7.642;2023-07-22T10:07:00;1.77;;;1.00;;
2706;SDS011;7819;48.046;7.642;2023-07-22T10:09:26;2.60;;;1.30;;
2706;SDS011;7819;48.046;7.642;2023-07-22T10:11:53;1.33;;;0.80;;
2706;SDS011;7819;48.046;7.642;2023-07-22T10:14:18;1.40;;;1.10;;
2706;SDS011;7819;48.046;7.642;2023-07-22T10:16:44;1.83;;;1.13;;
2706;SDS011;7819;48.046;7.642;2023-07-22T10:19:09;2.17;;;0.87;;
2706;SDS011;7819;48.046;7.642;2023-07-22T10:21:35;2.17;;;1.13;;
2706;SDS011;7819;48.046;7.642;2023-07-22T10:24:01;3.30;;;1.07;;
2706;SDS011;7819;48.046;7.642;2023-07-22T10:26:28;1.40;;;0.90;;
2706;SDS011;7819;48.046;7.642;2023-07-22T10:28:53;1.83;;;1.60;;
2706;SDS011;7819;48.046;7.642;2023-07-22T10:31:20;1.37;;;0.90;;
2706;SDS011;7819;48.046;7.642;2023-07-22T10:33:47;1.93;;;1.37;;
2706;SDS011;7819;48.046;7.642;2023-07-22T10:36:14;1.70;;;1.17;;
2706;SDS011;7819;48.046;7.642;2023-07-22T10:38:39;1.80;;;0.90;;
2706;SDS011;7819;48.046;7.642;2023-07-22T10:41:11;1.73;;;1.00;;
2706;SDS011;7819;48.046;7.642;2023-07-22T10:43:36;1.27;;;0.90;;
2706;SDS011;7819;48.046;7.642;2023-07-22T10:46:11;1.87;;;1.30;;
2706;SDS011;7819;48.046;7.642;2023-07-22T10:48:38;1.20;;;0.80;;
2706;SDS011;7819;48.046;7.642;2023-07-22T10:51:13;3.13;;;1.40;;
2706;SDS011;7819;48.046;7.642;2023-07-22T10:53:41;1.80;;;1.20;;
2706;SDS011;7819;48.046;7.642;2023-07-22T11:06:33;1.57;;;1.10;;
2706;SDS011;7819;48.046;7.642;2023-07-22T11:08:59;2.07;;;0.90;;
2706;SDS011;7819;48.046;7.642;2023-07-22T11:11:37;1.60;;;1.10;;
2706;SDS011;7819;48.046;7.642;2023-07-22T11:14:12;1.70;;;1.10;;
2706;SDS011;7819;48.046;7.642;2023-07-22T11:16:37;2.50;;;1.20;;
2706;SDS011;7819;48.046;7.642;2023-07-22T11:19:03;3.43;;;1.20;;
2706;SDS011;7819;48.046;7.642;2023-07-22T11:21:28;2.53;;;1.10;;
2706;SDS011;7819;48.046;7.642;2023-07-22T11:23:53;3.30;;;1.10;;
2706;SDS011;7819;48.046;7.642;2023-07-22T11:26:18;1.73;;;1.10;;
2706;SDS011;7819;48.046;7.642;2023-07-22T11:28:44;1.77;;;1.20;;
2706;SDS011;7819;48.046;7.642;2023-07-22T11:31:10;2.37;;;1.50;;
2706;SDS011;7819;48.046;7.642;2023-07-22T11:33:40;2.67;;;1.57;;
2706;SDS011;7819;48.046;7.642;2023-07-22T11:36:05;1.50;;;0.93;;
2706;SDS011;7819;48.046;7.642;2023-07-22T11:38:31;1.47;;;0.90;;
2706;SDS011;7819;48.046;7.642;2023-07-22T11:40:56;1.37;;;1.00;;
2706;SDS011;7819;48.046;7.642;2023-07-22T11:43:21;2.13;;;1.20;;
2706;SDS011;7819;48.046;7.642;2023-07-22T11:45:47;3.03;;;1.13;;
2706;SDS011;7819;48.046;7.642;2023-07-22T11:48:12;1.70;;;1.13;;
2706;SDS011;7819;48.046;7.642;2023-07-22T11:50:38;3.40;;;1.70;;
2706;SDS011;7819;48.046;7.642;2023-07-22T11:53:03;1.90;;;1.30;;
2706;SDS011;7819;48.046;7.642;2023-07-22T11:55:28;1.70;;;1.20;;
2706;SDS011;7819;48.046;7.642;2023-07-22T11:57:53;1.50;;;1.07;;
2706;SDS011;7819;48.046;7.642;2023-07-22T12:00:19;1.97;;;1.17;;
2706;SDS011;7819;48.046;7.642;2023-07-22T12:02:44;2.30;;;1.40;;
2706;SDS011;7819;48.046;7.642;2023-07-22T12:05:09;2.03;;;1.50;;
2706;SDS011;7819;48.046;7.642;2023-07-22T12:07:36;1.93;;;1.43;;
2706;SDS011;7819;48.046;7.642;2023-07-22T12:10:02;4.47;;;1.23;;
2706;SDS011;7819;48.046;7.642;2023-07-22T12:12:35;1.93;;;1.20;;
2706;SDS011;7819;48.046;7.642;2023-07-22T12:15:04;2.17;;;1.50;;
2706;SDS011;7819;48.046;7.642;2023-07-22T12:17:29;2.13;;;1.43;;
2706;SDS011;7819;48.046;7.642;2023-07-22T12:19:54;2.33;;;1.30;;
2706;SDS011;7819;48.046;7.642;2023-07-22T12:22:20;1.90;;;1.47;;
2706;SDS011;7819;48.046;7.642;2023-07-22T12:24:46;1.90;;;1.40;;
2706;SDS011;7819;48.046;7.642;2023-07-22T12:27:12;1.80;;;1.13;;
2706;SDS011;7819;48.046;7.642;2023-07-22T12:29:37;1.63;;;1.10;;
2706;SDS011;7819;48.046;7.642;2023-07-22T12:32:02;1.63;;;0.90;;
2706;SDS011;7819;48.046;7.642;2023-07-22T12:34:27;1.80;;;1.30;;
2706;SDS011;7819;48.046;7.642;2023-07-22T12:36:53;2.20;;;1.30;;
2706;SDS011;7819;48.046;7.642;2023-07-22T12:39:18;2.03;;;1.37;;
2706;SDS011;7819;48.046;7.642;2023-07-22T12:41:43;2.20;;;1.23;;
2706;SDS011;7819;48.046;7.642;2023-07-22T12:44:08;1.67;;;1.17;;
2706;SDS011;7819;48.046;7.642;2023-07-22T12:46:33;1.70;;;1.13;;
2706;SDS011;7819;48.046;7.642;2023-07-22T12:48:59;2.30;;;1.30;;
2706;SDS011;7819;48.046;7.642;2023-07-22T12:51:24;2.40;;;1.30;;
2706;SDS011;7819;48.046;7.642;2023-07-22T12:53:49;2.20;;;1.67;;
2706;SDS011;7819;48.046;7.642;2023-07-22T12:56:14;3.03;;;1.37;;
2706;SDS011;7819;48.046;7.642;2023-07-22T12:58:39;4.90;;;1.67;;
2706;SDS011;7819;48.046;7.642;2023-07-22T13:01:04;2.47;;;1.40;;
2706;SDS011;7819;48.046;7.642;2023-07-22T13:03:30;2.33;;;1.40;;
2706;SDS011;7819;48.046;7.642;2023-07-22T13:05:55;2.63;;;1.80;;
2706;SDS011;7819;48.046;7.642;2023-07-22T13:08:20;3.70;;;2.13;;
2706;SDS011;7819;48.046;7.642;2023-07-22T13:10:45;1.60;;;1.20;;
2706;SDS011;7819;48.046;7.642;2023-07-22T13:13:12;2.20;;;1.47;;
2706;SDS011;7819;48.046;7.642;2023-07-22T13:15:37;2.20;;;1.60;;
2706;SDS011;7819;48.046;7.642;2023-07-22T13:18:02;3.30;;;1.53;;
2706;SDS011;7819;48.046;7.642;2023-07-22T13:20:28;3.10;;;1.73;;
2706;SDS011;7819;48.046;7.642;2023-07-22T13:22:53;2.30;;;1.50;;
2706;SDS011;7819;48.046;7.642;2023-07-22T13:25:18;2.30;;;1.40;;
2706;SDS011;7819;48.046;7.642;2023-07-22T13:27:43;1.93;;;1.30;;
2706;SDS011;7819;48.046;7.642;2023-07-22T13:30:09;1.80;;;1.40;;
2706;SDS011;7819;48.046;7.642;2023-07-22T13:32:34;2.00;;;1.07;;
2706;SDS011;7819;48.046;7.642;2023-07-22T13:34:59;2.90;;;1.60;;
2706;SDS011;7819;48.046;7.642;2023-07-22T13:37:24;4.03;;;1.50;;
2706;SDS011;7819;48.046;7.642;2023-07-22T13:39:50;3.90;;;1.73;;
2706;SDS011;7819;48.046;7.642;2023-07-22T13:42:15;2.63;;;1.67;;
2706;SDS011;7819;48.046;7.642;2023-07-22T13:44:40;2.07;;;1.30;;
2706;SDS011;7819;48.046;7.642;2023-07-22T13:47:05;2.40;;;1.60;;
2706;SDS011;7819;48.046;7.642;2023-07-22T13:49:30;2.50;;;1.40;;
2706;SDS011;7819;48.046;7.642;2023-07-22T13:51:55;1.87;;;1.50;;
2706;SDS011;7819;48.046;7.642;2023-07-22T13:54:21;2.40;;;1.53;;
2706;SDS011;7819;48.046;7.642;2023-07-22T13:56:46;2.03;;;1.40;;
2706;SDS011;7819;48.046;7.642;2023-07-22T13:59:12;5.43;;;2.50;;
2706;SDS011;7819;48.046;7.642;2023-07-22T14:01:37;3.00;;;1.70;;
2706;SDS011;7819;48.046;7.642;2023-07-22T14:04:03;2.00;;;1.37;;
2706;SDS011;7819;48.046;7.642;2023-07-22T14:06:28;1.97;;;1.73;;
2706;SDS011;7819;48.046;7.642;2023-07-22T14:08:53;2.60;;;1.40;;
2706;SDS011;7819;48.046;7.642;2023-07-22T14:11:19;2.70;;;1.70;;
2706;SDS011;7819;48.046;7.642;2023-07-22T14:13:44;1.80;;;1.60;;
2706;SDS011;7819;48.046;7.642;2023-07-22T14:16:09;2.80;;;1.47;;
2706;SDS011;7819;48.046;7.642;2023-07-22T14:18:34;1.97;;;1.60;;
2706;SDS011;7819;48.046;7.642;2023-07-22T14:21:00;1.70;;;1.23;;
2706;SDS011;7819;48.046;7.642;2023-07-22T14:23:25;2.17;;;1.30;;
2706;SDS011;7819;48.046;7.642;2023-07-22T14:25:50;2.97;;;1.30;;
2706;SDS011;7819;48.046;7.642;2023-07-22T14:28:15;2.57;;;1.93;;
2706;SDS011;7819;48.046;7.642;2023-07-22T14:30:40;2.10;;;1.90;;
2706;SDS011;7819;48.046;7.642;2023-07-22T14:33:05;2.10;;;1.80;;
2706;SDS011;7819;48.046;7.642;2023-07-22T14:35:31;2.33;;;1.63;;
2706;SDS011;7819;48.046;7.642;2023-07-22T14:37:57;2.17;;;1.60;;
2706;SDS011;7819;48.046;7.642;2023-07-22T14:40:22;2.70;;;1.43;;
2706;SDS011;7819;48.046;7.642;2023-07-22T14:42:48;2.07;;;1.37;;
2706;SDS011;7819;48.046;7.642;2023-07-22T14:45:13;1.90;;;1.57;;
2706;SDS011;7819;48.046;7.642;2023-07-22T14:47:38;2.03;;;1.57;;
2706;SDS011;7819;48.046;7.642;2023-07-22T14:50:04;2.47;;;1.60;;
2706;SDS011;7819;48.046;7.642;2023-07-22T14:52:29;2.03;;;1.40;;
2706;SDS011;7819;48.046;7.642;2023-07-22T14:54:54;1.93;;;1.40;;
2706;SDS011;7819;48.046;7.642;2023-07-22T14:57:19;1.87;;;1.50;;
2706;SDS011;7819;48.046;7.642;2023-07-22T14:59:44;2.23;;;1.40;;
2706;SDS011;7819;48.046;7.642;2023-07-22T15:02:10;2.17;;;1.57;;
2706;SDS011;7819;48.046;7.642;2023-07-22T15:04:36;3.00;;;1.20;;
2706;SDS011;7819;48.046;7.642;2023-07-22T15:07:01;1.73;;;1.50;;
2706;SDS011;7819;48.046;7.642;2023-07-22T15:09:27;2.43;;;1.67;;
2706;SDS011;7819;48.046;7.642;2023-07-22T15:11:52;2.30;;;1.47;;
2706;SDS011;7819;48.046;7.642;2023-07-22T15:14:17;16.90;;;3.13;;
2706;SDS011;7819;48.046;7.642;2023-07-22T15:16:43;2.87;;;1.43;;